CBW6 weather

Belwood (Wright Field)
Ontario, Canada

Public forecast

Using degrees Celsius for public forecast. Weather courtesy of forecast.io.

Closest aviation weather report (METAR) to Belwood (Wright Field)

Closest report is Waterloo Airport, 20.0 nm (37.1 km) S. Retrieved 2020/08/06 14:00 UTC (59 minutes ago):

CYKF 061400Z AUTO 10003KT 360V120 9SM CLR 19/13 A3018 RMK SLP220 DENSITY ALT 1500FT

Closest aviation forecast (TAF) to Belwood (Wright Field)

Closest forecast is Waterloo Airport, 20.0 nm (37.1 km) S. Retrieved 2020/08/06 14:39 UTC (20 minutes ago):

TAF CYKF 061338Z 0614/0702 VRB03KT P6SM SKC FM061600 32007KT P6SM SCT060 TEMPO 0616/0624 BKN060 BECMG 0700/0702 10005KT RMK FCST BASED ON AUTO OBS NXT FCST BY 062000Z